Time;durP1;ratioP1;P1;durP2;ratioP2;P2;SDS_P1;SDS_P2;PMS_P1;PMS_P2;Temp;Humidity;BMP_temperature;BMP_pressure;BME280_temperature;BME280_humidity;BME280_pressure;Samples;Min_cycle;Max_cycle;Signal;HPM_P1;HPM_P2
2023/10/19 00:02:19;;;;;;;;;;;;;;;;;;5068215;28;19973;-58
2023/10/19 00:04:45;;;;;;;;;;;;;;;;;;5069965;28;19909;-59
2023/10/19 00:07:15;;;;;;;;;;;;;;;;;;5068831;28;20046;-59
2023/10/19 00:09:45;;;;;;;;;;;;;;;;;;5069502;28;20372;-58
2023/10/19 00:12:11;;;;;;;;;;;;;;;;;;5066345;28;20027;-63
2023/10/19 00:14:37;;;;;;;;;;;;;;;;;;5070370;28;20433;-59
2023/10/19 00:17:10;;;;;;;;;;;;;;;;;;5070483;28;19936;-60
2023/10/19 00:19:43;;;;;;;;;;;;;;;;;;5071165;28;19912;-59
2023/10/19 00:22:15;;;;;;;;;;;;;;;;;;5069238;28;19958;-59
2023/10/19 00:24:41;;;;;;;;;;;;;;;;;;5068659;28;19919;-59
2023/10/19 00:27:15;;;;;;;;;;;;;;;;;;5067125;28;20320;-59
2023/10/19 00:29:47;;;;;;;;;;;;;;;;;;5050746;28;19909;-60
2023/10/19 00:32:14;;;;;;;;;;;;;;;;;;5065233;28;19908;-60
2023/10/19 00:34:41;;;;;;;;;;;;;;;;;;5070402;28;20053;-59
2023/10/19 00:37:10;;;;;;;;;;;;;;;;;;5084342;28;20417;-59
2023/10/19 00:39:53;;;;;;;;;;;;;;;;;;5069048;28;19916;-60
2023/10/19 00:42:24;;;;;;;;;;;;;;;;;;5060293;28;19965;-59
2023/10/19 00:44:50;;;;;;;;;;;;;;;;;;5061154;28;20062;-59
2023/10/19 00:47:18;;;;;;;;;;;;;;;;;;5068360;28;19999;-60
2023/10/19 00:49:44;;;;;;;;;;;;;;;;;;5070436;28;19916;-60
2023/10/19 00:52:23;;;;;;;;;;;;;;;;;;5067461;28;19963;-59
2023/10/19 00:54:51;;;;;;;;;;;;;;;;;;5067175;28;19916;-60
2023/10/19 00:57:22;;;;;;;;;;;;;;;;;;5059831;28;19913;-59
2023/10/19 00:59:53;;;;;;;;;;;;;;;;;;5062423;28;19908;-59
2023/10/19 01:05:05;;;;;;;;;;;;;;;;;;5066284;28;19984;-59
2023/10/19 01:07:33;;;;;;;;;;;;;;;;;;5065675;28;19912;-60
2023/10/19 01:09:59;;;;;;;;;;;;;;;;;;5066685;28;20042;-59
2023/10/19 01:12:25;;;;;;;;;;;;;;;;;;5062717;28;19954;-58
2023/10/19 01:14:51;;;;;;;;;;;;;;;;;;5065945;28;20102;-58
2023/10/19 01:17:18;;;;;;;;;;;;;;;;;;5079315;28;20633;-59
2023/10/19 01:19:44;;;;;;;;;;;;;;;;;;5068882;28;19987;-58
2023/10/19 01:22:16;;;;;;;;;;;;;;;;;;5062949;28;20300;-59
2023/10/19 01:24:42;;;;;;;;;;;;;;;;;;5062542;28;20443;-58
2023/10/19 01:27:11;;;;;;;;;;;;;;;;;;5063878;28;19997;-58
2023/10/19 01:29:44;;;;;;;;;;;;;;;;;;5064708;28;19908;-58
2023/10/19 01:32:11;;;;;;;;;;;;;;;;;;5067741;28;19920;-59
2023/10/19 01:34:37;;;;;;;;;;;;;;;;;;5066969;28;20355;-59
2023/10/19 01:37:04;;;;;;;;;;;;;;;;;;5056962;28;20337;-58
2023/10/19 01:39:30;;;;;;;;;;;;;;;;;;5062808;28;20394;-58
2023/10/19 01:41:57;;;;;;;;;;;;;;;;;;5057370;28;19920;-58
2023/10/19 01:44:24;;;;;;;;;;;;;;;;;;5058005;28;19913;-59
2023/10/19 01:46:50;;;;;;;;;;;;;;;;;;5068197;28;19942;-58
2023/10/19 01:49:30;;;;;;;;;;;;;;;;;;5064665;28;19908;-58
2023/10/19 01:51:56;;;;;;;;;;;;;;;;;;5066592;28;19924;-61
2023/10/19 01:54:25;;;;;;;;;;;;;;;;;;5066594;28;19904;-58
2023/10/19 01:56:51;;;;;;;;;;;;;;;;;;5063331;28;19926;-58
2023/10/19 01:59:17;;;;;;;;;;;;;;;;;;5061200;28;19948;-59
2023/10/19 02:01:45;;;;;;;;;;;;;;;;;;5061037;28;19925;-58
2023/10/19 02:04:13;;;;;;;;;;;;;;;;;;5065019;28;20006;-58
2023/10/19 02:06:40;;;;;;;;;;;;;;;;;;5064236;28;19909;-58
2023/10/19 02:09:16;;;;;;;;;;;;;;;;;;5064468;28;19904;-58
2023/10/19 02:11:44;;;;;;;;;;;;;;;;;;5065236;28;19915;-58
2023/10/19 02:14:14;;;;;;;;;;;;;;;;;;5064899;28;20434;-56
2023/10/19 02:16:40;;;;;;;;;;;;;;;;;;5063878;28;20021;-56
2023/10/19 02:19:07;;;;;;;;;;;;;;;;;;5067375;28;19943;-57
2023/10/19 02:21:39;;;;;;;;;;;;;;;;;;5061217;28;19916;-57
2023/10/19 02:24:06;;;;;;;;;;;;;;;;;;5065037;28;19912;-57
2023/10/19 02:26:33;;;;;;;;;;;;;;;;;;5062359;28;19926;-57
2023/10/19 02:28:59;;;;;;;;;;;;;;;;;;5074738;28;19944;-56
2023/10/19 02:31:25;;;;;;;;;;;;;;;;;;5066126;28;19978;-56
2023/10/19 02:34:00;;;;;;;;;;;;;;;;;;5066040;28;19909;-57
2023/10/19 02:36:30;;;;;;;;;;;;;;;;;;5065448;28;19912;-56
2023/10/19 02:38:58;;;;;;;;;;;;;;;;;;5066590;28;20240;-57
2023/10/19 02:41:24;;;;;;;;;;;;;;;;;;5067470;28;19921;-56
2023/10/19 02:44:19;;;;;;;;;;;;;;;;;;5063769;28;19955;-56
2023/10/19 02:46:38;;;;;;;;;;;;;;;;;;5064956;28;19944;-57
2023/10/19 02:49:07;;;;;;;;;;;;;;;;;;5064652;28;20375;-56
2023/10/19 02:51:35;;;;;;;;;;;;;;;;;;5061815;28;19920;-56
2023/10/19 02:54:02;;;;;;;;;;;;;;;;;;5066006;28;19908;-56
2023/10/19 02:56:31;;;;;;;;;;;;;;;;;;5065764;28;20271;-57
2023/10/19 02:59:02;;;;;;;;;;;;;;;;;;5053947;28;20191;-56
2023/10/19 03:01:38;;;;;;;;;;;;;;;;;;5055892;28;19919;-56
2023/10/19 03:04:04;;;;;;;;;;;;;;;;;;5063432;28;19912;-57
2023/10/19 03:06:33;;;;;;;;;;;;;;;;;;5063156;28;19927;-58
2023/10/19 03:09:04;;;;;;;;;;;;;;;;;;5058198;28;20014;-57
2023/10/19 03:11:32;;;;;;;;;;;;;;;;;;5063433;28;20412;-57
2023/10/19 03:13:58;;;;;;;;;;;;;;;;;;5058615;28;19909;-57
2023/10/19 03:16:24;;;;;;;;;;;;;;;;;;5061512;28;19909;-57
2023/10/19 03:18:50;;;;;;;;;;;;;;;;;;5059095;28;20545;-57
2023/10/19 03:21:16;;;;;;;;;;;;;;;;;;5064400;28;20105;-59
2023/10/19 03:23:42;;;;;;;;;;;;;;;;;;5053947;28;20015;-56
2023/10/19 03:26:22;;;;;;;;;;;;;;;;;;5052515;28;19919;-56
2023/10/19 03:28:48;;;;;;;;;;;;;;;;;;5063371;28;19912;-57
2023/10/19 03:31:17;;;;;;;;;;;;;;;;;;5070824;28;19999;-56
2023/10/19 03:33:43;;;;;;;;;;;;;;;;;;5069384;28;20389;-56
2023/10/19 03:36:13;;;;;;;;;;;;;;;;;;5069635;28;19912;-56
2023/10/19 03:38:40;;;;;;;;;;;;;;;;;;5067735;28;20488;-57
2023/10/19 03:41:07;;;;;;;;;;;;;;;;;;5069898;28;20110;-56
2023/10/19 03:43:33;;;;;;;;;;;;;;;;;;5064441;28;20446;-56
2023/10/19 03:46:04;;;;;;;;;;;;;;;;;;5069908;28;20010;-56
2023/10/19 03:48:36;;;;;;;;;;;;;;;;;;5059791;28;20345;-56
2023/10/19 03:51:02;;;;;;;;;;;;;;;;;;5066341;28;20260;-56
2023/10/19 03:53:30;;;;;;;;;;;;;;;;;;5059861;28;20341;-56
2023/10/19 03:55:56;;;;;;;;;;;;;;;;;;5067577;28;19919;-56
2023/10/19 03:58:22;;;;;;;;;;;;;;;;;;5063640;28;20274;-56
2023/10/19 04:00:49;;;;;;;;;;;;;;;;;;5061484;28;19917;-56
2023/10/19 04:03:18;;;;;;;;;;;;;;;;;;5066826;28;19923;-56
2023/10/19 04:05:46;;;;;;;;;;;;;;;;;;5055043;28;20245;-56
2023/10/19 04:08:20;;;;;;;;;;;;;;;;;;5063775;28;20011;-56
2023/10/19 04:11:07;;;;;;;;;;;;;;;;;;5064609;28;20312;-56
2023/10/19 04:13:32;;;;;;;;;;;;;;;;;;5054484;28;19923;-59
2023/10/19 04:15:58;;;;;;;;;;;;;;;;;;5064830;28;20380;-58
2023/10/19 04:18:25;;;;;;;;;;;;;;;;;;5067912;28;19947;-58
2023/10/19 04:23:21;;;;;;;;;;;;;;;;;;5064219;28;20390;-59
2023/10/19 04:25:47;;;;;;;;;;;;;;;;;;5063744;28;19932;-59
2023/10/19 04:28:17;;;;;;;;;;;;;;;;;;5064254;28;20006;-58
2023/10/19 04:30:43;;;;;;;;;;;;;;;;;;5055809;28;19954;-58
2023/10/19 04:33:11;;;;;;;;;;;;;;;;;;5075441;28;19912;-59
2023/10/19 04:35:37;;;;;;;;;;;;;;;;;;5064428;28;19909;-59
2023/10/19 04:38:06;;;;;;;;;;;;;;;;;;5063048;28;20001;-59
2023/10/19 04:40:32;;;;;;;;;;;;;;;;;;5069083;28;19931;-58
2023/10/19 04:42:59;;;;;;;;;;;;;;;;;;5069639;28;19987;-58
2023/10/19 04:45:25;;;;;;;;;;;;;;;;;;5069390;28;19966;-59
2023/10/19 04:47:54;;;;;;;;;;;;;;;;;;5064922;28;19916;-59
2023/10/19 04:50:20;;;;;;;;;;;;;;;;;;5064972;28;19916;-59
2023/10/19 04:52:47;;;;;;;;;;;;;;;;;;5064148;28;19928;-59
2023/10/19 04:55:13;;;;;;;;;;;;;;;;;;5083652;28;20002;-59
2023/10/19 04:57:39;;;;;;;;;;;;;;;;;;5066430;28;20012;-59
2023/10/19 05:00:05;;;;;;;;;;;;;;;;;;5068019;28;20341;-59
2023/10/19 05:02:31;;;;;;;;;;;;;;;;;;5068032;28;19912;-59
2023/10/19 05:04:57;;;;;;;;;;;;;;;;;;5067661;28;20253;-59
2023/10/19 05:07:23;;;;;;;;;;;;;;;;;;5065898;28;19908;-59
2023/10/19 05:09:49;;;;;;;;;;;;;;;;;;5067463;28;19909;-59
2023/10/19 05:12:15;;;;;;;;;;;;;;;;;;5068918;28;19947;-59
2023/10/19 05:14:44;;;;;;;;;;;;;;;;;;5066016;28;19919;-59
2023/10/19 05:17:10;;;;;;;;;;;;;;;;;;5068258;28;19908;-59
2023/10/19 05:19:36;;;;;;;;;;;;;;;;;;5053385;28;19912;-59
2023/10/19 05:22:02;;;;;;;;;;;;;;;;;;5063938;28;19966;-59
2023/10/19 05:24:28;;;;;;;;;;;;;;;;;;5066007;28;19995;-60
2023/10/19 05:26:54;;;;;;;;;;;;;;;;;;5065670;28;20368;-59
2023/10/19 05:29:20;;;;;;;;;;;;;;;;;;5049874;28;19955;-59
2023/10/19 05:31:46;;;;;;;;;;;;;;;;;;5059062;28;20435;-59
2023/10/19 05:34:12;;;;;;;;;;;;;;;;;;5065014;28;20326;-59
2023/10/19 05:36:43;;;;;;;;;;;;;;;;;;5065542;28;20417;-59
2023/10/19 05:39:09;;;;;;;;;;;;;;;;;;5063951;28;19912;-59
2023/10/19 05:41:35;;;;;;;;;;;;;;;;;;5057031;28;19932;-59
2023/10/19 05:44:01;;;;;;;;;;;;;;;;;;5064455;28;20189;-59
2023/10/19 05:46:28;;;;;;;;;;;;;;;;;;5063738;28;19959;-59
2023/10/19 05:48:56;;;;;;;;;;;;;;;;;;5062911;28;19916;-59
2023/10/19 05:51:22;;;;;;;;;;;;;;;;;;5054059;28;20019;-58
2023/10/19 05:53:48;;;;;;;;;;;;;;;;;;5065779;28;20039;-57
2023/10/19 05:56:16;;;;;;;;;;;;;;;;;;5067620;28;19931;-58
2023/10/19 05:58:43;;;;;;;;;;;;;;;;;;5064819;28;19913;-58
2023/10/19 06:01:08;;;;;;;;;;;;;;;;;;5067615;28;19947;-58
2023/10/19 06:03:34;;;;;;;;;;;;;;;;;;5064821;28;20006;-58
2023/10/19 06:06:00;;;;;;;;;;;;;;;;;;5066763;28;19935;-58
2023/10/19 06:08:31;;;;;;;;;;;;;;;;;;5056714;28;19965;-58
2023/10/19 06:10:57;;;;;;;;;;;;;;;;;;5064625;28;19908;-58
2023/10/19 06:13:23;;;;;;;;;;;;;;;;;;5062270;28;20049;-58
2023/10/19 06:15:49;;;;;;;;;;;;;;;;;;5063513;28;19908;-58
2023/10/19 06:18:15;;;;;;;;;;;;;;;;;;5061469;28;20347;-58
2023/10/19 06:20:41;;;;;;;;;;;;;;;;;;5059284;28;20367;-58
2023/10/19 06:23:07;;;;;;;;;;;;;;;;;;5062287;28;19920;-58
2023/10/19 06:25:36;;;;;;;;;;;;;;;;;;5061936;28;20389;-59
2023/10/19 06:28:02;;;;;;;;;;;;;;;;;;5064197;28;20027;-58
2023/10/19 06:30:28;;;;;;;;;;;;;;;;;;5066623;28;20009;-58
2023/10/19 06:32:54;;;;;;;;;;;;;;;;;;5061149;28;19944;-58
2023/10/19 06:35:20;;;;;;;;;;;;;;;;;;5060947;28;20252;-59
2023/10/19 06:37:46;;;;;;;;;;;;;;;;;;5063603;28;20401;-59
2023/10/19 06:40:14;;;;;;;;;;;;;;;;;;5060322;28;19908;-57
2023/10/19 06:42:40;;;;;;;;;;;;;;;;;;5059797;28;19927;-56
2023/10/19 06:45:07;;;;;;;;;;;;;;;;;;5063624;28;20364;-56
2023/10/19 06:47:37;;;;;;;;;;;;;;;;;;5064847;28;20435;-56
2023/10/19 06:50:04;;;;;;;;;;;;;;;;;;5064077;28;20392;-56
2023/10/19 06:52:32;;;;;;;;;;;;;;;;;;5060759;28;19913;-56
2023/10/19 06:54:58;;;;;;;;;;;;;;;;;;5065198;28;20356;-57
2023/10/19 06:57:24;;;;;;;;;;;;;;;;;;5065017;28;19908;-56
2023/10/19 06:59:52;;;;;;;;;;;;;;;;;;5063131;28;20276;-57
2023/10/19 07:02:20;;;;;;;;;;;;;;;;;;5067274;28;19916;-56
2023/10/19 07:04:47;;;;;;;;;;;;;;;;;;5067011;28;20363;-56
2023/10/19 07:07:14;;;;;;;;;;;;;;;;;;5064855;28;20118;-56
2023/10/19 07:09:41;;;;;;;;;;;;;;;;;;5068755;28;19908;-57
2023/10/19 07:12:07;;;;;;;;;;;;;;;;;;5068940;28;19923;-56
2023/10/19 07:14:36;;;;;;;;;;;;;;;;;;5069214;28;20305;-57
2023/10/19 07:17:03;;;;;;;;;;;;;;;;;;5062394;28;19909;-57
2023/10/19 07:19:29;;;;;;;;;;;;;;;;;;5067585;28;19908;-57
2023/10/19 07:21:57;;;;;;;;;;;;;;;;;;5063585;28;19916;-63
2023/10/19 07:24:23;;;;;;;;;;;;;;;;;;5064486;28;19951;-56
2023/10/19 07:27:04;;;;;;;;;;;;;;;;;;5066703;28;20050;-57
2023/10/19 07:29:30;;;;;;;;;;;;;;;;;;5060727;28;20260;-57
2023/10/19 07:31:58;;;;;;;;;;;;;;;;;;5069044;28;19951;-56
2023/10/19 07:34:27;;;;;;;;;;;;;;;;;;5063400;28;20420;-60
2023/10/19 07:36:54;;;;;;;;;;;;;;;;;;5067580;28;20039;-56
2023/10/19 07:39:22;;;;;;;;;;;;;;;;;;5064440;28;19987;-57
2023/10/19 07:41:48;;;;;;;;;;;;;;;;;;5067832;28;20022;-56
2023/10/19 07:44:15;;;;;;;;;;;;;;;;;;5067686;28;19994;-56
2023/10/19 07:46:42;;;;;;;;;;;;;;;;;;5066481;28;19909;-57
2023/10/19 07:49:08;;;;;;;;;;;;;;;;;;5062678;28;19908;-56
2023/10/19 07:51:34;;;;;;;;;;;;;;;;;;5066558;28;19912;-57
2023/10/19 07:54:00;;;;;;;;;;;;;;;;;;5064129;28;19966;-57
2023/10/19 07:56:28;;;;;;;;;;;;;;;;;;5066965;28;19924;-57
2023/10/19 07:58:55;;;;;;;;;;;;;;;;;;5067527;28;20310;-57
2023/10/19 08:01:21;;;;;;;;;;;;;;;;;;5068086;28;20432;-56
2023/10/19 08:03:47;;;;;;;;;;;;;;;;;;5067975;28;19909;-56
2023/10/19 08:06:13;;;;;;;;;;;;;;;;;;5068816;28;19940;-56
2023/10/19 08:08:41;;;;;;;;;;;;;;;;;;5064061;28;19919;-58
2023/10/19 08:11:08;;;;;;;;;;;;;;;;;;5061571;28;20328;-56
2023/10/19 08:13:34;;;;;;;;;;;;;;;;;;5067266;28;20023;-56
2023/10/19 08:16:00;;;;;;;;;;;;;;;;;;5066898;28;20320;-60
2023/10/19 08:18:26;;;;;;;;;;;;;;;;;;5065621;28;20368;-56
2023/10/19 08:20:52;;;;;;;;;;;;;;;;;;5063117;28;20011;-57
2023/10/19 08:23:23;;;;;;;;;;;;;;;;;;5064781;28;20007;-57
2023/10/19 08:25:50;;;;;;;;;;;;;;;;;;5065752;28;19919;-57
2023/10/19 08:28:16;;;;;;;;;;;;;;;;;;5065576;28;20432;-57
2023/10/19 08:30:44;;;;;;;;;;;;;;;;;;5064206;28;20016;-57
2023/10/19 08:33:13;;;;;;;;;;;;;;;;;;5064988;28;19917;-57
2023/10/19 08:35:39;;;;;;;;;;;;;;;;;;5063829;28;19986;-57
2023/10/19 08:38:11;;;;;;;;;;;;;;;;;;5065387;28;20324;-56
2023/10/19 08:40:38;;;;;;;;;;;;;;;;;;5062719;28;20039;-57
2023/10/19 08:43:04;;;;;;;;;;;;;;;;;;5066310;28;19908;-56
2023/10/19 08:45:34;;;;;;;;;;;;;;;;;;5065344;28;20298;-56
2023/10/19 08:48:01;;;;;;;;;;;;;;;;;;5066113;28;20337;-56
2023/10/19 08:50:27;;;;;;;;;;;;;;;;;;5064695;28;20154;-56
2023/10/19 08:52:53;;;;;;;;;;;;;;;;;;5061007;28;19912;-58
2023/10/19 08:55:19;;;;;;;;;;;;;;;;;;5066872;28;19955;-58
2023/10/19 08:57:45;;;;;;;;;;;;;;;;;;5062874;28;19919;-58
2023/10/19 09:00:11;;;;;;;;;;;;;;;;;;5065419;28;19948;-59
2023/10/19 09:02:38;;;;;;;;;;;;;;;;;;5064919;28;19913;-59
2023/10/19 09:05:05;;;;;;;;;;;;;;;;;;5065617;28;19920;-59
2023/10/19 09:07:34;;;;;;;;;;;;;;;;;;5065054;28;20314;-59
2023/10/19 09:10:01;;;;;;;;;;;;;;;;;;5063554;28;20311;-57
2023/10/19 09:12:27;;;;;;;;;;;;;;;;;;5066140;28;19916;-57
2023/10/19 09:14:53;;;;;;;;;;;;;;;;;;5067184;28;19915;-56
2023/10/19 09:17:19;;;;;;;;;;;;;;;;;;5065646;28;20012;-57
2023/10/19 09:19:47;;;;;;;;;;;;;;;;;;5067009;28;20378;-56
2023/10/19 09:22:18;;;;;;;;;;;;;;;;;;5062877;28;19912;-56
2023/10/19 09:24:44;;;;;;;;;;;;;;;;;;5066147;28;19908;-56
2023/10/19 09:27:10;;;;;;;;;;;;;;;;;;5061662;28;21179;-56
2023/10/19 09:29:37;;;;;;;;;;;;;;;;;;5066777;28;20313;-56
2023/10/19 09:32:04;;;;;;;;;;;;;;;;;;5066482;28;20315;-57
2023/10/19 09:34:33;;;;;;;;;;;;;;;;;;5062045;28;19952;-56
2023/10/19 09:37:00;;;;;;;;;;;;;;;;;;5065774;28;19978;-56
2023/10/19 09:39:26;;;;;;;;;;;;;;;;;;5065153;28;19960;-56
2023/10/19 09:41:52;;;;;;;;;;;;;;;;;;5066372;28;20085;-56
2023/10/19 09:44:18;;;;;;;;;;;;;;;;;;5066661;28;19922;-56
2023/10/19 09:46:44;;;;;;;;;;;;;;;;;;5062138;28;20061;-56
2023/10/19 09:49:13;;;;;;;;;;;;;;;;;;5066950;28;19912;-56
2023/10/19 09:51:39;;;;;;;;;;;;;;;;;;5066950;28;20363;-56
2023/10/19 09:54:05;;;;;;;;;;;;;;;;;;5067525;28;19909;-56
2023/10/19 09:56:31;;;;;;;;;;;;;;;;;;5065159;28;20006;-56
2023/10/19 09:58:58;;;;;;;;;;;;;;;;;;5066236;28;19920;-56
2023/10/19 10:01:27;;;;;;;;;;;;;;;;;;5066087;28;20062;-56
2023/10/19 10:03:53;;;;;;;;;;;;;;;;;;5066044;28;20037;-56
2023/10/19 10:06:20;;;;;;;;;;;;;;;;;;5067183;28;19946;-56
2023/10/19 10:08:47;;;;;;;;;;;;;;;;;;5067391;28;20233;-56
2023/10/19 10:11:13;;;;;;;;;;;;;;;;;;5066909;28;19908;-56
2023/10/19 10:13:39;;;;;;;;;;;;;;;;;;5066964;28;19954;-56
2023/10/19 10:16:08;;;;;;;;;;;;;;;;;;5068592;28;19974;-56
2023/10/19 10:18:35;;;;;;;;;;;;;;;;;;5068055;28;19965;-56
2023/10/19 10:21:01;;;;;;;;;;;;;;;;;;5067646;28;19918;-56
2023/10/19 10:23:32;;;;;;;;;;;;;;;;;;5066801;28;20395;-56
2023/10/19 10:25:58;;;;;;;;;;;;;;;;;;5067608;28;20022;-56
2023/10/19 10:28:24;;;;;;;;;;;;;;;;;;5064830;28;19928;-56
2023/10/19 10:30:51;;;;;;;;;;;;;;;;;;5065898;28;20361;-57
2023/10/19 10:33:17;;;;;;;;;;;;;;;;;;5067641;28;19916;-57
2023/10/19 10:35:43;;;;;;;;;;;;;;;;;;5067776;28;20007;-58
2023/10/19 10:38:09;;;;;;;;;;;;;;;;;;5069599;28;19965;-58
2023/10/19 10:40:35;;;;;;;;;;;;;;;;;;5072697;28;19912;-56
2023/10/19 10:43:01;;;;;;;;;;;;;;;;;;5068363;28;19913;-56
2023/10/19 10:45:27;;;;;;;;;;;;;;;;;;5071157;28;19955;-56
2023/10/19 10:47:56;;;;;;;;;;;;;;;;;;5071458;28;19908;-55
2023/10/19 10:50:23;;;;;;;;;;;;;;;;;;5061730;28;19936;-56
2023/10/19 10:52:53;;;;;;;;;;;;;;;;;;5064443;28;19908;-56
2023/10/19 10:55:19;;;;;;;;;;;;;;;;;;5070562;28;19999;-56
2023/10/19 10:57:45;;;;;;;;;;;;;;;;;;5067922;28;19912;-56
2023/10/19 11:00:23;;;;;;;;;;;;;;;;;;5067331;28;19908;-56
2023/10/19 11:02:50;;;;;;;;;;;;;;;;;;5069433;28;19920;-58
2023/10/19 11:05:16;;;;;;;;;;;;;;;;;;5065937;28;19909;-56
2023/10/19 11:07:42;;;;;;;;;;;;;;;;;;5083777;28;19912;-56
2023/10/19 11:10:11;;;;;;;;;;;;;;;;;;5070622;28;20018;-56
2023/10/19 11:12:37;;;;;;;;;;;;;;;;;;5068631;28;19984;-55
2023/10/19 11:15:09;;;;;;;;;;;;;;;;;;5071225;28;19913;-56
2023/10/19 11:17:37;;;;;;;;;;;;;;;;;;5071117;28;20013;-55
2023/10/19 11:20:04;;;;;;;;;;;;;;;;;;5070690;28;20564;-56
2023/10/19 11:22:30;;;;;;;;;;;;;;;;;;5068563;28;19923;-58
2023/10/19 11:24:56;;;;;;;;;;;;;;;;;;5085929;28;19955;-57
2023/10/19 11:27:26;;;;;;;;;;;;;;;;;;5069150;28;19927;-57
2023/10/19 11:29:52;;;;;;;;;;;;;;;;;;5070465;28;20106;-57
2023/10/19 11:32:19;;;;;;;;;;;;;;;;;;5084286;28;19923;-55
2023/10/19 11:34:47;;;;;;;;;;;;;;;;;;5069264;28;19946;-55
2023/10/19 11:37:13;;;;;;;;;;;;;;;;;;5068549;28;19913;-55
2023/10/19 11:39:39;;;;;;;;;;;;;;;;;;5068838;28;19908;-56
2023/10/19 11:42:05;;;;;;;;;;;;;;;;;;5084543;28;20400;-56
2023/10/19 11:44:31;;;;;;;;;;;;;;;;;;5069072;28;19960;-55
2023/10/19 11:46:57;;;;;;;;;;;;;;;;;;5069046;28;19912;-55
2023/10/19 11:49:23;;;;;;;;;;;;;;;;;;5068716;28;19938;-56
2023/10/19 11:51:49;;;;;;;;;;;;;;;;;;5068031;28;20352;-55
2023/10/19 11:54:17;;;;;;;;;;;;;;;;;;5066168;28;19913;-57
2023/10/19 11:56:44;;;;;;;;;;;;;;;;;;5068869;28;19912;-57
2023/10/19 11:59:12;;;;;;;;;;;;;;;;;;5068495;28;20007;-58
2023/10/19 12:01:38;;;;;;;;;;;;;;;;;;5068761;28;19916;-58
2023/10/19 12:04:05;;;;;;;;;;;;;;;;;;5068527;28;19953;-58
2023/10/19 12:06:31;;;;;;;;;;;;;;;;;;5068337;28;20002;-58
2023/10/19 12:08:59;;;;;;;;;;;;;;;;;;5063979;28;20333;-55
2023/10/19 12:11:25;;;;;;;;;;;;;;;;;;5067387;28;20020;-55
2023/10/19 12:13:51;;;;;;;;;;;;;;;;;;5059500;28;20317;-55
2023/10/19 12:16:17;;;;;;;;;;;;;;;;;;5082884;28;19953;-55
2023/10/19 12:18:43;;;;;;;;;;;;;;;;;;5069136;28;19908;-55
2023/10/19 12:21:13;;;;;;;;;;;;;;;;;;5067117;28;19916;-58
2023/10/19 12:23:40;;;;;;;;;;;;;;;;;;5063497;28;19912;-58
2023/10/19 12:26:10;;;;;;;;;;;;;;;;;;5068203;28;19919;-57
2023/10/19 12:28:38;;;;;;;;;;;;;;;;;;5067416;28;20264;-58
2023/10/19 12:31:05;;;;;;;;;;;;;;;;;;5021630;28;1289840;-57
2023/10/19 12:33:31;;;;;;;;;;;;;;;;;;5069686;28;19998;-58
2023/10/19 12:35:57;;;;;;;;;;;;;;;;;;5065783;28;19932;-58
2023/10/19 12:38:23;;;;;;;;;;;;;;;;;;5067084;28;19966;-58
2023/10/19 12:40:50;;;;;;;;;;;;;;;;;;5067249;28;20034;-58
2023/10/19 12:43:18;;;;;;;;;;;;;;;;;;5055305;28;20340;-57
2023/10/19 12:45:47;;;;;;;;;;;;;;;;;;5068600;28;20514;-58
2023/10/19 12:48:13;;;;;;;;;;;;;;;;;;5067070;28;19931;-58
2023/10/19 12:50:40;;;;;;;;;;;;;;;;;;5066939;28;19958;-58
2023/10/19 12:53:06;;;;;;;;;;;;;;;;;;5065333;28;19977;-58
2023/10/19 12:55:33;;;;;;;;;;;;;;;;;;5067784;28;19935;-59
2023/10/19 12:58:06;;;;;;;;;;;;;;;;;;5068590;28;19912;-58
2023/10/19 13:00:40;;;;;;;;;;;;;;;;;;5066147;28;20284;-55
2023/10/19 13:03:06;;;;;;;;;;;;;;;;;;5066760;28;19908;-55
2023/10/19 13:05:33;;;;;;;;;;;;;;;;;;5066816;28;19913;-55
2023/10/19 13:08:00;;;;;;;;;;;;;;;;;;5065379;28;19919;-58
2023/10/19 13:10:27;;;;;;;;;;;;;;;;;;5069048;28;19985;-55
2023/10/19 13:12:53;;;;;;;;;;;;;;;;;;5066719;28;19912;-54
2023/10/19 13:15:20;;;;;;;;;;;;;;;;;;5067391;28;20376;-55
2023/10/19 13:17:46;;;;;;;;;;;;;;;;;;5067733;28;19912;-55
2023/10/19 13:20:18;;;;;;;;;;;;;;;;;;5066355;28;20012;-54
2023/10/19 13:22:45;;;;;;;;;;;;;;;;;;5065972;28;20329;-58
2023/10/19 13:25:16;;;;;;;;;;;;;;;;;;5058389;28;20149;-57
2023/10/19 13:27:42;;;;;;;;;;;;;;;;;;5065614;28;19931;-55
2023/10/19 13:30:11;;;;;;;;;;;;;;;;;;5064389;28;20061;-56
2023/10/19 13:32:37;;;;;;;;;;;;;;;;;;5063810;28;19917;-56
2023/10/19 13:35:03;;;;;;;;;;;;;;;;;;5065233;28;20049;-56
2023/10/19 13:37:29;;;;;;;;;;;;;;;;;;5065327;28;20266;-58
2023/10/19 13:39:55;;;;;;;;;;;;;;;;;;5067230;28;19934;-58
2023/10/19 13:42:21;;;;;;;;;;;;;;;;;;5065469;28;20355;-58
2023/10/19 13:44:48;;;;;;;;;;;;;;;;;;5067340;28;19909;-59
2023/10/19 13:47:15;;;;;;;;;;;;;;;;;;5064680;28;19908;-57
2023/10/19 13:49:41;;;;;;;;;;;;;;;;;;5066626;28;19908;-59
2023/10/19 13:52:10;;;;;;;;;;;;;;;;;;5061339;28;19917;-60
2023/10/19 13:54:36;;;;;;;;;;;;;;;;;;5064457;28;19922;-60
2023/10/19 13:57:02;;;;;;;;;;;;;;;;;;5064875;28;20388;-60
2023/10/19 13:59:29;;;;;;;;;;;;;;;;;;5064456;28;19958;-60
2023/10/19 14:01:55;;;;;;;;;;;;;;;;;;5060325;28;20445;-61
2023/10/19 14:04:21;;;;;;;;;;;;;;;;;;5064771;28;20276;-58
2023/10/19 14:06:50;;;;;;;;;;;;;;;;;;5078778;28;20320;-58
2023/10/19 14:09:17;;;;;;;;;;;;;;;;;;5073798;28;20261;-58
2023/10/19 14:11:44;;;;;;;;;;;;;;;;;;5067229;28;19995;-58
2023/10/19 14:14:11;;;;;;;;;;;;;;;;;;5063455;28;19904;-59
2023/10/19 14:16:37;;;;;;;;;;;;;;;;;;5061077;28;20300;-62
2023/10/19 14:19:04;;;;;;;;;;;;;;;;;;5062940;28;20015;-61
2023/10/19 14:21:30;;;;;;;;;;;;;;;;;;5067257;28;19916;-58
2023/10/19 14:23:56;;;;;;;;;;;;;;;;;;5066870;28;19951;-59
2023/10/19 14:26:23;;;;;;;;;;;;;;;;;;5067298;28;20292;-59
2023/10/19 14:28:49;;;;;;;;;;;;;;;;;;5067935;28;19913;-61
2023/10/19 14:31:16;;;;;;;;;;;;;;;;;;5062522;28;19920;-62
2023/10/19 14:33:42;;;;;;;;;;;;;;;;;;5074020;28;20241;-62
2023/10/19 14:36:09;;;;;;;;;;;;;;;;;;5066669;28;19908;-62
2023/10/19 14:38:36;;;;;;;;;;;;;;;;;;5067746;28;20311;-62
2023/10/19 14:41:02;;;;;;;;;;;;;;;;;;5067593;28;19916;-62
2023/10/19 14:43:31;;;;;;;;;;;;;;;;;;5068007;28;19920;-62
2023/10/19 14:45:57;;;;;;;;;;;;;;;;;;5069054;28;20298;-61
2023/10/19 14:48:23;;;;;;;;;;;;;;;;;;5068434;28;19951;-62
2023/10/19 14:50:51;;;;;;;;;;;;;;;;;;5068526;28;19912;-62
2023/10/19 14:53:17;;;;;;;;;;;;;;;;;;5066048;28;20435;-62
2023/10/19 14:55:43;;;;;;;;;;;;;;;;;;5065802;28;19943;-62
2023/10/19 14:58:10;;;;;;;;;;;;;;;;;;5066277;28;19928;-61
2023/10/19 15:00:43;;;;;;;;;;;;;;;;;;5065342;28;19916;-61
2023/10/19 15:03:09;;;;;;;;;;;;;;;;;;5062638;28;20410;-61
2023/10/19 15:05:35;;;;;;;;;;;;;;;;;;5065536;28;19908;-61
2023/10/19 15:08:02;;;;;;;;;;;;;;;;;;5065049;28;19912;-61
2023/10/19 15:10:28;;;;;;;;;;;;;;;;;;5066786;28;20007;-61
2023/10/19 15:12:54;;;;;;;;;;;;;;;;;;5065897;28;19920;-61
2023/10/19 15:15:20;;;;;;;;;;;;;;;;;;5066777;28;19920;-61
2023/10/19 15:17:46;;;;;;;;;;;;;;;;;;5066913;28;19931;-61
2023/10/19 15:20:14;;;;;;;;;;;;;;;;;;5061734;28;19955;-61
2023/10/19 15:22:40;;;;;;;;;;;;;;;;;;5063692;28;20331;-61
2023/10/19 15:25:09;;;;;;;;;;;;;;;;;;5068455;28;19938;-61
2023/10/19 15:27:35;;;;;;;;;;;;;;;;;;5068300;28;19961;-61
2023/10/19 15:30:01;;;;;;;;;;;;;;;;;;5069428;28;19908;-59
2023/10/19 15:32:30;;;;;;;;;;;;;;;;;;5066989;28;19982;-59
2023/10/19 15:34:56;;;;;;;;;;;;;;;;;;5069764;28;20375;-59
2023/10/19 15:37:22;;;;;;;;;;;;;;;;;;5067893;28;19918;-58
2023/10/19 15:39:48;;;;;;;;;;;;;;;;;;5066323;28;19919;-59
2023/10/19 15:42:15;;;;;;;;;;;;;;;;;;5058317;28;19912;-59
2023/10/19 15:44:41;;;;;;;;;;;;;;;;;;5051892;28;19905;-59
2023/10/19 15:47:12;;;;;;;;;;;;;;;;;;5084653;28;19909;-59
2023/10/19 15:49:38;;;;;;;;;;;;;;;;;;5071906;28;19912;-59
2023/10/19 15:52:04;;;;;;;;;;;;;;;;;;5070399;28;19915;-60
2023/10/19 15:54:30;;;;;;;;;;;;;;;;;;5069353;28;19950;-62
2023/10/19 15:56:56;;;;;;;;;;;;;;;;;;5068136;28;19908;-62
2023/10/19 15:59:22;;;;;;;;;;;;;;;;;;5071467;28;19965;-61
2023/10/19 16:01:48;;;;;;;;;;;;;;;;;;5070608;28;20000;-61
2023/10/19 16:04:14;;;;;;;;;;;;;;;;;;5071180;28;19918;-61
2023/10/19 16:06:40;;;;;;;;;;;;;;;;;;5068818;28;19998;-62
2023/10/19 16:09:06;;;;;;;;;;;;;;;;;;5070450;28;19997;-61
2023/10/19 16:11:32;;;;;;;;;;;;;;;;;;5070688;28;19930;-61
2023/10/19 16:13:58;;;;;;;;;;;;;;;;;;5071080;28;19908;-61
2023/10/19 16:16:24;;;;;;;;;;;;;;;;;;5069895;28;19923;-59
2023/10/19 16:18:50;;;;;;;;;;;;;;;;;;5070727;28;19908;-61
2023/10/19 16:21:17;;;;;;;;;;;;;;;;;;5068633;28;19980;-61
2023/10/19 16:23:43;;;;;;;;;;;;;;;;;;5069773;28;19936;-61
2023/10/19 16:26:10;;;;;;;;;;;;;;;;;;5070178;28;20253;-61
2023/10/19 16:28:36;;;;;;;;;;;;;;;;;;5067341;28;20000;-60
2023/10/19 16:31:02;;;;;;;;;;;;;;;;;;5063544;28;19986;-60
2023/10/19 16:33:28;;;;;;;;;;;;;;;;;;5064297;28;19908;-61
2023/10/19 16:35:54;;;;;;;;;;;;;;;;;;5061686;28;19927;-60
2023/10/19 16:38:20;;;;;;;;;;;;;;;;;;5073778;28;19912;-60
2023/10/19 16:40:46;;;;;;;;;;;;;;;;;;5076859;28;19962;-60
2023/10/19 16:43:13;;;;;;;;;;;;;;;;;;5050076;28;19912;-60
2023/10/19 16:45:39;;;;;;;;;;;;;;;;;;5066918;28;20359;-60
2023/10/19 16:48:05;;;;;;;;;;;;;;;;;;5070211;28;20364;-61
2023/10/19 16:50:31;;;;;;;;;;;;;;;;;;5069001;28;19957;-60
2023/10/19 16:52:57;;;;;;;;;;;;;;;;;;5067237;28;20344;-60